createdAt,value
2019-04-04T00:02:13.210Z,98163.18
2019-04-04T00:04:39.511Z,98153.84
2019-04-04T00:07:06.150Z,98153.05
2019-04-04T00:09:33.137Z,98154.37
2019-04-04T00:12:00.209Z,98160.09
2019-04-04T00:14:26.528Z,98158.78
2019-04-04T00:16:52.863Z,98160.94
2019-04-04T00:19:19.283Z,98155.17
2019-04-04T00:21:45.989Z,98151.77
2019-04-04T00:24:12.334Z,98157.67
2019-04-04T00:26:41.696Z,98153.88
2019-04-04T00:29:06.863Z,98158.16
2019-04-04T00:31:33.202Z,98156.85
2019-04-04T00:33:59.502Z,98153.74
2019-04-04T00:36:25.837Z,98154.89
2019-04-04T00:38:52.455Z,98146.52
2019-04-04T00:41:18.789Z,98142.92
2019-04-04T00:43:45.416Z,98138.34
2019-04-04T00:46:12.156Z,98139.14
2019-04-04T00:48:38.501Z,98140.29
2019-04-04T00:51:07.601Z,98138.47
2019-04-04T00:53:33.719Z,98138.98
2019-04-04T00:56:00.036Z,98138.33
2019-04-04T00:58:26.355Z,98138.33
2019-04-04T01:00:52.952Z,98139.30
2019-04-04T01:03:20.928Z,98139.80
2019-04-04T01:05:47.615Z,98145.55
2019-04-04T01:08:13.994Z,98144.36
2019-04-04T01:10:40.290Z,98138.33
2019-04-04T01:13:07.030Z,98136.02
2019-04-04T01:15:33.858Z,98124.67
2019-04-04T01:18:00.505Z,98127.48
2019-04-04T01:20:27.163Z,98123.03
2019-04-04T01:22:54.046Z,98120.41
2019-04-04T01:25:21.743Z,98111.88
2019-04-04T01:27:48.060Z,98117.28
2019-04-04T01:30:14.494Z,98103.52
2019-04-04T01:32:40.828Z,98108.14
2019-04-04T01:35:08.031Z,98104.67
2019-04-04T01:37:34.736Z,98112.90
2019-04-04T01:40:02.217Z,98105.34
2019-04-04T01:42:29.278Z,98107.45
2019-04-04T01:44:55.990Z,98108.63
2019-04-04T01:47:22.653Z,98111.91
2019-04-04T01:49:51.907Z,98107.98
2019-04-04T01:52:18.461Z,98109.43
2019-04-04T01:54:44.803Z,98101.71
2019-04-04T01:57:11.102Z,98095.66
2019-04-04T01:59:37.431Z,98098.61
2019-04-04T02:02:04.501Z,98109.26
2019-04-04T02:04:31.162Z,98114.63
2019-04-04T02:06:59.151Z,98108.91
2019-04-04T02:09:25.735Z,98107.91
2019-04-04T02:11:52.097Z,98106.26
2019-04-04T02:14:19.600Z,98103.64
2019-04-04T02:16:50.806Z,98090.53
2019-04-04T02:19:14.650Z,98087.24
2019-04-04T02:21:40.958Z,98089.55
2019-04-04T02:24:07.289Z,98083.83
2019-04-04T02:26:34.111Z,98077.12
2019-04-04T02:29:01.885Z,98083.01
2019-04-04T02:31:30.114Z,98085.29
2019-04-04T02:33:56.734Z,98082.00
2019-04-04T02:36:23.070Z,98085.63
2019-04-04T02:39:06.002Z,98092.45
2019-04-04T02:41:32.385Z,98095.11
2019-04-04T02:43:59.728Z,98091.48
2019-04-04T02:46:27.328Z,98083.95
2019-04-04T02:48:56.251Z,98089.31
2019-04-04T02:51:22.245Z,98089.13
2019-04-04T02:53:51.859Z,98081.27
2019-04-04T02:56:17.478Z,98091.30
2019-04-04T02:58:46.395Z,98086.21
2019-04-04T03:01:12.793Z,98077.00
2019-04-04T03:03:42.076Z,98078.95
2019-04-04T03:06:07.335Z,98073.04
2019-04-04T03:08:36.773Z,98077.83
2019-04-04T03:11:02.236Z,98071.91
2019-04-04T03:13:31.130Z,98075.50
2019-04-04T03:15:56.941Z,98076.14
2019-04-04T03:18:23.247Z,98069.92
2019-04-04T03:20:50.684Z,98065.63
2019-04-04T03:23:17.237Z,98069.74
2019-04-04T03:25:44.661Z,98069.73
2019-04-04T03:28:12.500Z,98070.80
2019-04-04T03:30:39.312Z,98067.99
2019-04-04T03:33:05.977Z,98064.94
2019-04-04T03:35:32.309Z,98067.22
2019-04-04T03:37:58.649Z,98060.38
2019-04-04T03:40:25.948Z,98060.91
2019-04-04T03:42:52.389Z,98066.00
2019-04-04T03:45:18.752Z,98067.60
2019-04-04T03:47:45.046Z,98083.27
2019-04-04T03:50:12.559Z,98085.88
2019-04-04T03:52:43.290Z,98090.64
2019-04-04T03:55:07.247Z,98098.19
2019-04-04T03:57:33.904Z,98094.86
2019-04-04T04:00:05.820Z,98105.70
2019-04-04T04:02:30.053Z,98110.31
2019-04-04T04:05:00.614Z,98113.38
2019-04-04T04:07:25.095Z,98122.25
2019-04-04T04:09:51.399Z,98128.94
2019-04-04T04:12:19.144Z,98129.36
2019-04-04T04:14:45.787Z,98122.97
2019-04-04T04:17:12.659Z,98123.78
2019-04-04T04:19:39.459Z,98121.28
2019-04-04T04:22:05.794Z,98114.55
2019-04-04T04:24:32.125Z,98110.56
2019-04-04T04:26:58.491Z,98105.78
2019-04-04T04:29:24.873Z,98113.10
2019-04-04T04:31:51.551Z,98101.66
2019-04-04T04:34:18.165Z,98113.66
2019-04-04T04:36:47.721Z,98112.75
2019-04-04T04:39:12.725Z,98111.03
2019-04-04T04:41:39.067Z,98103.77
2019-04-04T04:44:06.381Z,98105.27
2019-04-04T04:46:33.406Z,98098.37
2019-04-04T04:49:00.622Z,98097.97
2019-04-04T04:51:28.318Z,98100.93
2019-04-04T04:53:54.641Z,98096.98
2019-04-04T04:56:20.987Z,98095.03
2019-04-04T04:58:47.311Z,98097.22
2019-04-04T05:01:13.660Z,98099.77
2019-04-04T05:03:40.029Z,98096.80
2019-04-04T05:06:06.510Z,98091.23
2019-04-04T05:08:33.151Z,98091.99
2019-04-04T05:10:59.799Z,98085.17
2019-04-04T05:13:28.660Z,98084.27
2019-04-04T05:15:54.322Z,98091.53
2019-04-04T05:18:20.930Z,98091.19
2019-04-04T05:20:47.582Z,98093.23
2019-04-04T05:23:15.507Z,98082.22
2019-04-04T05:25:52.083Z,98088.01
2019-04-04T05:28:11.469Z,98091.83
2019-04-04T05:30:38.264Z,98107.17
2019-04-04T05:33:05.080Z,98095.24
2019-04-04T05:35:33.445Z,98093.95
2019-04-04T05:37:59.947Z,98094.30
2019-04-04T05:40:26.263Z,98100.14
2019-04-04T05:42:52.586Z,98100.03
2019-04-04T05:45:18.970Z,98095.66
2019-04-04T05:47:46.406Z,98099.66
2019-04-04T05:50:12.817Z,98098.06
2019-04-04T05:52:39.133Z,98087.30
2019-04-04T05:55:10.840Z,98085.75
2019-04-04T05:57:37.382Z,98078.43
2019-04-04T06:00:07.361Z,98084.16
2019-04-04T06:02:34.067Z,98089.97
2019-04-04T06:05:00.681Z,98084.71
2019-04-04T06:07:27.324Z,98086.83
2019-04-04T06:09:53.976Z,98081.76
2019-04-04T06:12:22.919Z,98084.38
2019-04-04T06:14:49.411Z,98080.73
2019-04-04T06:17:15.742Z,98078.10
2019-04-04T06:19:44.422Z,98075.44
2019-04-04T06:22:10.625Z,98068.34
2019-04-04T06:24:37.284Z,98057.30
2019-04-04T06:27:03.633Z,98061.08
2019-04-04T06:29:29.948Z,98053.58
2019-04-04T06:31:59.996Z,98051.05
2019-04-04T06:34:24.836Z,98046.82
2019-04-04T06:36:51.497Z,98051.29
2019-04-04T06:39:18.201Z,98044.38
2019-04-04T06:41:44.892Z,98052.09
2019-04-04T06:44:13.109Z,98051.81
2019-04-04T06:46:39.773Z,98051.50
2019-04-04T06:49:06.435Z,98045.30
2019-04-04T06:51:32.742Z,98052.55
2019-04-04T06:53:59.657Z,98045.66
2019-04-04T06:56:26.127Z,98037.47
2019-04-04T06:58:52.767Z,98028.20
2019-04-04T07:01:21.849Z,98022.81
2019-04-04T07:03:48.001Z,98021.62
2019-04-04T07:06:14.317Z,98023.89
2019-04-04T07:08:41.070Z,98013.82
2019-04-04T07:11:20.540Z,98008.47
2019-04-04T07:13:42.456Z,98008.98
2019-04-04T07:16:07.732Z,98005.08
2019-04-04T07:18:32.445Z,97994.27
2019-04-04T07:20:59.067Z,97995.41
2019-04-04T07:23:28.207Z,97996.03
2019-04-04T07:25:53.720Z,97987.89
2019-04-04T07:28:20.048Z,97988.84
2019-04-04T07:30:46.521Z,97985.29
2019-04-04T07:33:12.972Z,97986.03
2019-04-04T07:35:40.361Z,97984.85
2019-04-04T07:38:08.094Z,97986.17
2019-04-04T07:40:37.174Z,97987.34
2019-04-04T07:43:02.935Z,97988.35
2019-04-04T07:45:30.691Z,97987.22
2019-04-04T07:47:56.998Z,97990.22
2019-04-04T07:50:26.256Z,97991.90
2019-04-04T07:52:52.848Z,97985.94
2019-04-04T07:55:19.160Z,97986.81
2019-04-04T07:57:45.820Z,97994.24
2019-04-04T08:00:12.659Z,97992.23
2019-04-04T08:02:38.989Z,97996.92
2019-04-04T08:05:07.971Z,97993.75
2019-04-04T08:07:34.519Z,97988.56
2019-04-04T08:10:04.754Z,97980.02
2019-04-04T08:12:31.087Z,97985.05
2019-04-04T08:14:57.737Z,97973.74
2019-04-04T08:17:24.365Z,97978.66
2019-04-04T08:19:59.522Z,97979.95
2019-04-04T08:22:19.178Z,97978.36
2019-04-04T08:24:45.908Z,97969.58
2019-04-04T08:27:12.623Z,97974.39
2019-04-04T08:29:38.978Z,97972.30
2019-04-04T08:32:05.619Z,97972.60
2019-04-04T08:34:32.180Z,97977.52
2019-04-04T08:36:58.513Z,97971.18
2019-04-04T08:39:24.883Z,97962.33
2019-04-04T08:41:52.534Z,97967.38
2019-04-04T08:44:19.059Z,97967.88
2019-04-04T08:46:45.387Z,97965.90
2019-04-04T08:49:11.716Z,97965.02
2019-04-04T08:51:38.067Z,97959.34
2019-04-04T08:54:04.879Z,97959.48
2019-04-04T08:56:31.209Z,97965.31
2019-04-04T08:58:57.627Z,97957.88
2019-04-04T09:01:24.260Z,97952.78
2019-04-04T09:03:50.607Z,97957.23
2019-04-04T09:06:17.236Z,97952.76
2019-04-04T09:08:43.533Z,97954.54
2019-04-04T09:11:10.189Z,97952.27
2019-04-04T09:13:36.496Z,97956.63
2019-04-04T09:16:02.829Z,97946.94
2019-04-04T09:18:29.500Z,97942.77
2019-04-04T09:20:55.820Z,97940.55
2019-04-04T09:23:22.472Z,97940.45
2019-04-04T09:25:48.789Z,97937.72
2019-04-04T09:28:15.178Z,97938.75
2019-04-04T09:30:41.547Z,97940.98
2019-04-04T09:33:08.322Z,97942.30
2019-04-04T09:35:36.558Z,97939.66
2019-04-04T09:38:02.879Z,97941.56
2019-04-04T09:40:30.277Z,97934.73
2019-04-04T09:42:56.603Z,97945.85
2019-04-04T09:45:23.242Z,97943.37
2019-04-04T09:47:49.570Z,97939.63
2019-04-04T09:50:16.320Z,97953.83
2019-04-04T09:52:42.657Z,97935.36
2019-04-04T09:55:09.656Z,97934.81
2019-04-04T09:57:36.324Z,97937.55
2019-04-04T10:00:15.436Z,97938.62
2019-04-04T10:02:41.891Z,97936.70
2019-04-04T10:05:08.882Z,97943.41
2019-04-04T10:07:35.668Z,97943.67
2019-04-04T10:10:05.474Z,97934.92
2019-04-04T10:12:31.800Z,97935.49
2019-04-04T10:14:58.128Z,97926.56
2019-04-04T10:17:24.811Z,97929.02
2019-04-04T10:19:51.438Z,97927.33
2019-04-04T10:22:18.114Z,97934.27
2019-04-04T10:24:44.818Z,97933.27
2019-04-04T10:27:11.145Z,97922.02
2019-04-04T10:29:37.507Z,97922.50
2019-04-04T10:32:04.241Z,97926.64
2019-04-04T10:34:30.645Z,97930.26
2019-04-04T10:36:57.286Z,97920.00
2019-04-04T10:39:29.047Z,97926.03
2019-04-04T10:41:51.862Z,97925.57
2019-04-04T10:44:18.211Z,97918.05
2019-04-04T10:46:44.875Z,97924.98
2019-04-04T10:49:11.179Z,97921.52
2019-04-04T10:51:37.546Z,97917.42
2019-04-04T10:54:04.973Z,97915.43
2019-04-04T10:56:31.326Z,97928.61
2019-04-04T10:58:57.625Z,97918.09
2019-04-04T11:01:24.478Z,97915.94
2019-04-04T11:03:53.040Z,97923.12
2019-04-04T11:06:19.579Z,97907.63
2019-04-04T11:08:45.925Z,97910.06
2019-04-04T11:11:14.549Z,97911.21
2019-04-04T11:13:40.902Z,97918.34
2019-04-04T11:16:07.796Z,97915.94
2019-04-04T11:18:34.208Z,97911.11
2019-04-04T11:21:00.553Z,97902.68
2019-04-04T11:23:26.860Z,97905.20
2019-04-04T11:25:53.562Z,97895.79
2019-04-04T11:28:20.214Z,97893.82
2019-04-04T11:30:47.068Z,97897.89
2019-04-04T11:33:42.205Z,97901.30
2019-04-04T11:36:44.262Z,97896.16
2019-04-04T11:39:13.971Z,97895.59
2019-04-04T11:41:40.435Z,97898.26
2019-04-04T11:44:08.008Z,97888.12
2019-04-04T11:46:34.493Z,97891.48
2019-04-04T11:49:01.285Z,97899.17
2019-04-04T11:51:27.933Z,97896.38
2019-04-04T11:53:54.263Z,97902.88
2019-04-04T11:56:20.893Z,97894.01
2019-04-04T11:58:47.432Z,97903.52
2019-04-04T12:01:20.073Z,97897.16
2019-04-04T12:03:46.406Z,97903.41
2019-04-04T12:06:12.846Z,97905.52
2019-04-04T12:08:39.511Z,97910.75
2019-04-04T12:11:06.158Z,97912.72
2019-04-04T12:13:32.496Z,97906.90
2019-04-04T12:15:58.798Z,97901.77
2019-04-04T12:18:25.195Z,97909.58
2019-04-04T12:20:54.303Z,97907.91
2019-04-04T12:23:20.647Z,97910.03
2019-04-04T12:25:47.304Z,97913.31
2019-04-04T12:28:14.084Z,97911.55
2019-04-04T12:30:41.807Z,97911.88
2019-04-04T12:33:08.165Z,97909.71
2019-04-04T12:35:34.612Z,97907.89
2019-04-04T12:38:00.951Z,97904.47
2019-04-04T12:40:27.656Z,97917.25
2019-04-04T12:42:54.890Z,97918.91
2019-04-04T12:45:21.222Z,97921.66
2019-04-04T12:47:47.907Z,97907.64
2019-04-04T12:50:14.529Z,97913.27
2019-04-04T12:52:41.690Z,97914.72
2019-04-04T12:55:08.679Z,97917.58
2019-04-04T12:57:35.862Z,97915.04
2019-04-04T13:00:05.025Z,97915.95
2019-04-04T13:02:31.809Z,97906.47
2019-04-04T13:04:58.126Z,97912.19
2019-04-04T13:07:24.773Z,97904.75
2019-04-04T13:09:52.006Z,97906.02
2019-04-04T13:12:18.669Z,97899.09
2019-04-04T13:14:45.302Z,97896.98
2019-04-04T13:17:11.635Z,97904.62
2019-04-04T13:19:37.982Z,97892.63
2019-04-04T13:22:04.308Z,97896.98
2019-04-04T13:24:30.992Z,97889.09
2019-04-04T13:26:57.410Z,97891.47
2019-04-04T13:29:27.621Z,97895.14
2019-04-04T13:31:56.808Z,97899.25
2019-04-04T13:34:23.526Z,97894.15
2019-04-04T13:36:49.868Z,97886.27
2019-04-04T13:39:16.492Z,97889.20
2019-04-04T13:41:42.813Z,97882.11
2019-04-04T13:44:09.163Z,97895.82
2019-04-04T13:46:35.462Z,97888.86
2019-04-04T13:49:01.776Z,97879.25
2019-04-04T13:51:28.553Z,97882.14
2019-04-04T13:53:55.209Z,97887.75
2019-04-04T13:56:21.535Z,97888.89
2019-04-04T13:58:47.877Z,97881.17
2019-04-04T14:01:14.183Z,97893.98
2019-04-04T14:03:46.915Z,97883.59
2019-04-04T14:06:13.336Z,97882.96
2019-04-04T14:08:40.150Z,97888.30
2019-04-04T14:11:06.596Z,97888.16
2019-04-04T14:13:33.900Z,97896.41
2019-04-04T14:16:00.582Z,97884.52
2019-04-04T14:18:39.020Z,97885.59
2019-04-04T14:21:03.334Z,97874.05
2019-04-04T14:23:24.342Z,97868.02
2019-04-04T14:25:50.663Z,97854.09
2019-04-04T14:28:17.777Z,97863.70
2019-04-04T14:30:44.401Z,97861.79
2019-04-04T14:33:11.048Z,97848.77
2019-04-04T14:35:37.673Z,97855.39
2019-04-04T14:38:04.039Z,97853.14
2019-04-04T14:40:30.663Z,97850.84
2019-04-04T14:42:57.632Z,97855.50
2019-04-04T14:45:24.345Z,97836.02
2019-04-04T14:47:51.185Z,97835.77
2019-04-04T14:50:17.505Z,97831.49
2019-04-04T14:52:43.824Z,97833.41
2019-04-04T14:55:10.582Z,97839.27
2019-04-04T14:57:36.917Z,97816.38
2019-04-04T15:00:07.541Z,97825.62
2019-04-04T15:02:34.110Z,97825.02
2019-04-04T15:05:00.457Z,97828.27
2019-04-04T15:07:26.787Z,97822.80
2019-04-04T15:09:53.111Z,97819.50
2019-04-04T15:12:19.705Z,97828.14
2019-04-04T15:14:47.216Z,97830.99
2019-04-04T15:17:13.562Z,97823.15
2019-04-04T15:19:40.249Z,97835.74
2019-04-04T15:22:06.577Z,97829.55
2019-04-04T15:24:33.222Z,97839.09
2019-04-04T15:26:59.553Z,97840.20
2019-04-04T15:29:25.879Z,97845.33
2019-04-04T15:31:52.627Z,97849.91
2019-04-04T15:34:19.301Z,97857.38
2019-04-04T15:36:45.704Z,97861.38
2019-04-04T15:39:12.050Z,97850.80
2019-04-04T15:41:38.501Z,97857.30
2019-04-04T15:44:04.827Z,97849.30
2019-04-04T15:46:31.434Z,97850.88
2019-04-04T15:48:57.996Z,97847.92
2019-04-04T15:51:24.317Z,97852.34
2019-04-04T15:53:50.658Z,97859.30
2019-04-04T15:56:16.990Z,97856.96
2019-04-04T15:58:43.438Z,97859.51
2019-04-04T16:01:10.231Z,97867.70
2019-04-04T16:03:37.892Z,97861.35
2019-04-04T16:06:04.266Z,97862.97
2019-04-04T16:08:30.567Z,97866.58
2019-04-04T16:10:59.749Z,97858.70
2019-04-04T16:13:26.022Z,97859.95
2019-04-04T16:15:52.371Z,97864.03
2019-04-04T16:18:19.052Z,97864.19
2019-04-04T16:20:45.498Z,97866.13
2019-04-04T16:23:11.935Z,97873.99
2019-04-04T16:25:38.251Z,97862.44
2019-04-04T16:28:04.770Z,97866.99
2019-04-04T16:30:31.064Z,97863.95
2019-04-04T16:32:59.687Z,97864.10
2019-04-04T16:35:26.465Z,97868.56
2019-04-04T16:37:53.135Z,97874.32
2019-04-04T16:40:19.721Z,97873.52
2019-04-04T16:42:46.365Z,97868.44
2019-04-04T16:45:12.936Z,97871.08
2019-04-04T16:47:39.267Z,97869.77
2019-04-04T16:50:07.011Z,97879.03
2019-04-04T16:52:33.732Z,97881.68
2019-04-04T16:55:00.387Z,97881.92
2019-04-04T16:57:27.214Z,97882.73
2019-04-04T16:59:53.540Z,97887.55
2019-04-04T17:02:19.949Z,97887.09
2019-04-04T17:04:46.858Z,97892.78
2019-04-04T17:07:13.368Z,97894.34
2019-04-04T17:09:39.724Z,97890.44
2019-04-04T17:12:14.708Z,97897.16
2019-04-04T17:14:34.429Z,97901.27
2019-04-04T17:17:00.794Z,97901.27
2019-04-04T17:19:27.706Z,97904.14
2019-04-04T17:21:54.417Z,97898.59
2019-04-04T17:24:23.168Z,97900.70
2019-04-04T17:26:49.616Z,97896.75
2019-04-04T17:29:16.287Z,97904.70
2019-04-04T17:31:42.613Z,97898.70
2019-04-04T17:34:09.259Z,97899.02
2019-04-04T17:36:36.351Z,97904.94
2019-04-04T17:39:06.401Z,97909.41
2019-04-04T17:41:33.272Z,97912.88
2019-04-04T17:43:59.906Z,97920.52
2019-04-04T17:46:26.386Z,97921.48
2019-04-04T17:48:53.077Z,97925.42
2019-04-04T17:51:19.466Z,97928.16
2019-04-04T17:53:45.854Z,97933.25
2019-04-04T17:56:12.384Z,97925.19
2019-04-04T17:58:38.765Z,97937.95
2019-04-04T18:01:06.988Z,97940.44
2019-04-04T18:03:33.342Z,97944.79
2019-04-04T18:05:59.941Z,97946.23
2019-04-04T18:08:26.598Z,97950.52
2019-04-04T18:10:53.221Z,97951.80
2019-04-04T18:13:21.962Z,97957.28
2019-04-04T18:15:48.553Z,97965.71
2019-04-04T18:18:14.949Z,97971.13
2019-04-04T18:20:41.630Z,97969.73
2019-04-04T18:23:09.193Z,97973.72
2019-04-04T18:25:35.867Z,97982.81
2019-04-04T18:28:02.272Z,97984.01
2019-04-04T18:30:28.578Z,97984.45
2019-04-04T18:32:54.933Z,97986.64
2019-04-04T18:35:22.053Z,97985.47
2019-04-04T18:37:48.948Z,97997.45
2019-04-04T18:40:16.505Z,97998.77
2019-04-04T18:42:52.537Z,98013.09
2019-04-04T18:45:12.154Z,98013.37
2019-04-04T18:47:38.468Z,98012.48
2019-04-04T18:50:05.578Z,98014.63
2019-04-04T18:52:32.033Z,98016.48
2019-04-04T18:54:58.803Z,98014.96
2019-04-04T18:57:25.501Z,98012.51
2019-04-04T18:59:51.885Z,98011.92
2019-04-04T19:02:18.398Z,98013.05
2019-04-04T19:04:45.016Z,98010.16
2019-04-04T19:07:11.405Z,98012.84
2019-04-04T19:09:38.124Z,98020.42
2019-04-04T19:12:05.930Z,98013.38
2019-04-04T19:14:32.596Z,98012.28
2019-04-04T19:16:59.047Z,98013.98
2019-04-04T19:19:25.413Z,98020.27
2019-04-04T19:21:51.790Z,98017.39
2019-04-04T19:24:18.187Z,98014.66
2019-04-04T19:26:44.652Z,98019.92
2019-04-04T19:29:11.068Z,98031.08
2019-04-04T19:31:37.832Z,98029.16
2019-04-04T19:34:04.821Z,98031.59
2019-04-04T19:36:31.622Z,98033.87
2019-04-04T19:39:10.572Z,98031.85
2019-04-04T19:41:37.612Z,98034.97
2019-04-04T19:44:04.160Z,98034.16
2019-04-04T19:46:36.921Z,98038.21
2019-04-04T19:48:58.960Z,98046.42
2019-04-04T19:51:25.423Z,98049.16
2019-04-04T19:53:52.212Z,98050.30
2019-04-04T19:56:18.866Z,98052.17
2019-04-04T19:58:45.638Z,98050.97
2019-04-04T20:01:12.336Z,98048.16
2019-04-04T20:03:39.084Z,98058.41
2019-04-04T20:06:06.994Z,98054.72
2019-04-04T20:08:33.316Z,98057.77
2019-04-04T20:11:02.409Z,98055.58
2019-04-04T20:13:31.279Z,98055.98
2019-04-04T20:15:57.004Z,98066.92
2019-04-04T20:18:23.773Z,98071.41
2019-04-04T20:20:50.786Z,98074.00
2019-04-04T20:23:17.430Z,98077.91
2019-04-04T20:25:43.821Z,98076.60
2019-04-04T20:28:10.269Z,98078.36
2019-04-04T20:30:38.270Z,98082.44
2019-04-04T20:33:06.792Z,98075.28
2019-04-04T20:35:33.486Z,98079.31
2019-04-04T20:38:00.105Z,98082.63
2019-04-04T20:40:26.484Z,98087.66
2019-04-04T20:42:52.776Z,98087.84
2019-04-04T20:45:19.118Z,98088.30
2019-04-04T20:47:45.502Z,98090.13
2019-04-04T20:50:12.331Z,98088.55
2019-04-04T20:52:38.661Z,98084.94
2019-04-04T20:55:05.560Z,98092.78
2019-04-04T20:57:32.311Z,98092.00
2019-04-04T20:59:58.915Z,98089.39
2019-04-04T21:02:25.926Z,98097.30
2019-04-04T21:04:54.400Z,98090.13
2019-04-04T21:07:20.747Z,98094.97
2019-04-04T21:09:47.422Z,98093.08
2019-04-04T21:12:13.753Z,98108.63
2019-04-04T21:14:40.103Z,98112.94
2019-04-04T21:17:06.716Z,98109.80
2019-04-04T21:19:33.070Z,98115.40
2019-04-04T21:21:59.695Z,98114.81
2019-04-04T21:31:16.648Z,98123.19
2019-04-04T21:33:42.972Z,98121.45
2019-04-04T21:36:09.643Z,98123.21
2019-04-04T21:38:36.031Z,98120.41
2019-04-04T21:41:02.526Z,98127.72
2019-04-04T21:43:29.250Z,98125.36
2019-04-04T21:45:55.586Z,98130.66
2019-04-04T21:48:22.217Z,98130.53
2019-04-04T21:50:48.600Z,98131.63
2019-04-04T21:53:15.481Z,98134.34
2019-04-04T21:55:43.461Z,98146.59
2019-04-04T21:58:10.859Z,98136.38
2019-04-04T22:00:41.274Z,98143.28
2019-04-04T22:03:08.534Z,98146.80
2019-04-04T22:05:34.821Z,98154.60
2019-04-04T22:08:01.187Z,98158.23
2019-04-04T22:10:27.792Z,98157.42
2019-04-04T22:12:54.232Z,98162.69
2019-04-04T22:15:20.544Z,98166.80
2019-04-04T22:17:46.862Z,98172.89
2019-04-04T22:20:13.268Z,98164.71
2019-04-04T22:22:39.575Z,98163.23
2019-04-04T22:25:06.288Z,98164.00
2019-04-04T22:27:32.591Z,98167.52
2019-04-04T22:29:58.983Z,98169.98
2019-04-04T22:32:25.308Z,98161.03
2019-04-04T22:34:51.645Z,98163.55
2019-04-04T22:37:17.978Z,98163.70
2019-04-04T22:39:44.582Z,98168.48
2019-04-04T22:42:11.851Z,98167.09
2019-04-04T22:44:38.213Z,98174.45
2019-04-04T22:47:05.018Z,98174.98
2019-04-04T22:49:31.953Z,98173.17
2019-04-04T22:51:58.609Z,98176.80
2019-04-04T22:54:24.977Z,98174.82
2019-04-04T22:56:51.564Z,98187.82
2019-04-04T22:59:17.901Z,98187.86
2019-04-04T23:01:44.535Z,98193.28
2019-04-04T23:04:10.908Z,98203.06
2019-04-04T23:06:37.643Z,98213.97
2019-04-04T23:09:06.704Z,98212.25
2019-04-04T23:11:33.340Z,98210.81
2019-04-04T23:13:59.677Z,98219.27
2019-04-04T23:16:26.109Z,98226.17
2019-04-04T23:18:52.462Z,98217.22
2019-04-04T23:21:18.778Z,98221.21
2019-04-04T23:23:45.144Z,98229.96
2019-04-04T23:26:11.861Z,98233.84
2019-04-04T23:28:38.503Z,98239.19
2019-04-04T23:31:05.138Z,98248.11
2019-04-04T23:33:31.482Z,98251.11
2019-04-04T23:35:57.806Z,98254.07
2019-04-04T23:38:24.137Z,98258.39
2019-04-04T23:40:50.491Z,98264.64
2019-04-04T23:43:17.101Z,98265.77
2019-04-04T23:45:43.464Z,98282.39
2019-04-04T23:48:09.787Z,98276.39
2019-04-04T23:50:36.131Z,98286.28
2019-04-04T23:53:02.439Z,98295.59
2019-04-04T23:55:28.735Z,98289.33
2019-04-04T23:57:55.112Z,98287.77
